Latest Weather Observations for Douglas River

IDD60801

Issued at 9:31 pm CST Sunday 25 September 2016 (issued every 30 minutes, with the page automatically refreshed every 10 minutes)

About weather observations | Map of weather stations | Latest weather observations for NT | Other Formats
Station Details ID: 014901 Name: DOUGLAS RIVER Lat: -13.83 Lon: 131.19 Height: 42.8 m
Data from the previous 72 hours. | See also: Recent months at Douglas River
Date/Time
CST
Temp
°C
App
Temp
°C
Dew
Point
°C
Rel
Hum
%
Delta-T
°C
Wind Press
QNH
hPa
Press
MSL
hPa
Rain since
9am
mm
Dir  Spd
km/h
Gust
km/h
Spd
kts
Gust
kts
25/09:30pm 27.9 32.1 23.4 76 3.1 NW 7 9 4 5 1009.4 1009.1 0.0
25/09:00pm 27.9 33.4 23.4 76 3.1 CALM 0 6 0 3 1009.0 1008.7 0.0
25/08:30pm 28.0 32.7 24.0 79 2.8 WSW 6 6 3 3 1008.6 1008.3 0.0
25/08:00pm 28.8 34.1 23.7 74 3.5 NW 2 7 1 4 1008.2 1007.9 0.0
25/07:30pm 29.2 35.3 24.5 76 3.3 CALM 0 0 0 0 1007.8 1007.5 0.0
25/07:00pm 30.0 34.1 22.9 65 4.9 WNW 6 7 3 4 1007.5 1007.2 0.0
25/06:30pm 30.6 33.8 22.4 61 5.6 WNW 9 13 5 7 1007.3 1007.0 0.0
25/06:00pm 30.8 34.1 22.5 61 5.7 WNW 9 17 5 9 1006.8 1006.5 0.0
25/05:30pm 30.9 33.3 22.2 59 5.9 WNW 13 19 7 10 1006.4 1006.1 0.0
25/05:00pm 31.5 32.5 21.8 56 6.6 WNW 19 35 10 19 1006.3 1006.0 0.0
25/04:30pm 34.9 36.8 20.5 43 9.7 WNW 11 24 6 13 1006.2 1005.9 0.0
25/04:00pm 36.2 37.6 19.6 37 11.1 WNW 11 15 6 8 1005.8 1005.5 0.0
25/03:30pm 35.6 36.6 19.5 38 10.7 WNW 13 20 7 11 1006.1 1005.8 0.0
25/03:00pm 36.1 37.5 20.4 40 10.6 WNW 13 24 7 13 1006.3 1006.0 0.0
25/02:30pm 34.3 35.7 20.3 44 9.4 NW 13 22 7 12 1006.7 1006.4 0.0
25/02:00pm 35.8 37.5 20.2 40 10.5 SW 11 17 6 9 1006.7 1006.4 0.0
25/01:30pm 35.3 38.4 21.0 43 9.7 SW 6 13 3 7 1007.3 1007.0 0.0
25/01:00pm 35.1 37.3 21.1 44 9.5 W 11 19 6 10 1007.8 1007.5 0.0
25/12:30pm 34.0 36.4 21.5 48 8.5 WNW 11 17 6 9 1008.6 1008.3 0.0
25/12:00pm 34.0 37.0 22.0 49 8.2 SW 9 15 5 8 1009.2 1008.9 0.0
25/11:30am 33.0 35.8 23.0 55 6.9 WSW 13 20 7 11 1009.8 1009.5 0.0
25/11:00am 32.7 35.3 22.7 55 6.9 SW 13 19 7 10 1010.1 1009.8 0.0
25/10:30am 32.1 35.2 23.6 60 5.9 WSW 13 19 7 10 1010.2 1009.9 0.0
25/10:00am 30.7 34.0 23.8 66 4.8 WSW 13 20 7 11 1010.2 1009.9 0.0
25/09:30am 30.2 33.0 23.7 68 4.5 WSW 15 20 8 11 1010.4 1010.1 0.0
25/09:00am 29.1 33.7 24.7 77 3.1 W 9 13 5 7 1010.4 1010.1 0.0
25/08:30am 28.4 34.0 24.8 81 2.5 WNW 4 9 2 5 1010.5 1010.2 0.0
25/08:00am 27.2 33.4 24.6 86 1.8 CALM 0 0 0 0 1010.2 1009.9 0.0
25/07:30am 25.7 31.8 24.5 93 0.8 CALM 0 0 0 0 1009.9 1009.6 0.0
25/07:00am 25.1 31.2 24.4 96 0.5 CALM 0 0 0 0 1009.4 1009.1 0.0
25/06:30am 24.9 29.7 24.2 96 0.5 SSE 6 15 3 8 1009.2 1008.9 0.0
25/06:00am 25.1 29.7 24.1 94 0.7 NW 7 11 4 6 1008.5 1008.2 0.0
25/05:30am 25.1 30.1 23.9 93 0.8 NW 4 7 2 4 1008.3 1008.0 0.0
25/05:00am 25.0 30.8 24.0 94 0.7 CALM 0 0 0 0 1008.3 1008.0 0.0
25/04:30am 25.1 31.0 24.1 94 0.7 CALM 0 0 0 0 1008.3 1008.0 0.0
25/04:00am 25.2 31.0 23.9 92 0.9 CALM 0 0 0 0 1008.4 1008.1 0.0
25/03:30am 25.1 30.1 23.9 93 0.8 NE 4 7 2 4 1008.4 1008.1 0.0
25/03:00am 25.1 29.8 23.9 93 0.8 SW 6 6 3 3 1008.2 1007.9 0.0
25/02:30am 25.3 29.6 23.7 91 1.1 SW 7 11 4 6 1008.2 1007.9 0.0
25/02:00am 26.0 31.0 23.8 88 1.5 W 4 7 2 4 1008.3 1008.0 0.0
25/01:30am 26.2 31.1 23.6 85 1.8 WNW 4 7 2 4 1008.6 1008.3 0.0
25/01:00am 26.5 32.1 23.6 84 2.0 CALM 0 6 0 3 1008.9 1008.6 0.0
25/12:30am 26.7 31.0 23.3 81 2.3 WNW 6 7 3 4 1009.1 1008.8 0.0
25/12:00am 26.7 31.3 23.2 81 2.4 NNW 4 9 2 5 1009.2 1008.9 0.0
 
Date/Time
CST
Temp
°C
App
Temp
°C
Dew
Point
°C
Rel
Hum
%
Delta-T
°C
Wind Press
QNH
hPa
Press
MSL
hPa
Rain since
9am
mm
Dir  Spd
km/h
Gust
km/h
Spd
kts
Gust
kts
24/11:30pm 26.3 31.4 23.4 84 2.0 N 2 6 1 3 1009.5 1009.2 0.0
24/11:00pm 26.4 31.3 23.0 81 2.3 N 2 7 1 4 1009.5 1009.2 0.0
24/10:30pm 26.8 30.8 22.8 79 2.7 NW 6 9 3 5 1009.4 1009.1 0.0
24/10:00pm 27.1 30.9 22.8 77 2.9 NW 7 13 4 7 1009.4 1009.1 0.0
24/09:30pm 27.5 31.0 22.8 75 3.2 NW 9 15 5 8 1009.1 1008.8 0.0
24/09:00pm 27.7 31.5 22.7 74 3.4 WNW 7 11 4 6 1008.7 1008.4 0.0
24/08:30pm 27.9 32.7 22.8 74 3.5 W 2 7 1 4 1008.4 1008.1 0.0
24/08:00pm 28.0 31.4 22.7 73 3.6 WNW 9 15 5 8 1008.1 1007.8 0.0
24/07:30pm 28.2 33.5 23.1 74 3.5 CALM 0 6 0 3 1007.8 1007.5 0.0
24/07:00pm 28.7 34.1 23.3 72 3.7 CALM 0 0 0 0 1007.8 1007.5 0.0
24/06:30pm 29.4 33.9 22.2 65 4.9 N 2 6 1 3 1007.2 1006.9 0.0
24/06:00pm 30.1 34.0 22.5 63 5.2 NNW 6 11 3 6 1006.5 1006.2 0.0
24/05:30pm 29.5 32.2 22.1 64 5.0 WNW 11 19 6 10 1006.2 1005.9 0.0
24/05:00pm 29.9 31.9 22.3 63 5.2 W 15 24 8 13 1006.0 1005.7 0.0
24/04:30pm 33.1 36.0 21.1 49 8.1 SW 7 11 4 6 1005.6 1005.3 0.0
24/04:00pm 33.0 35.0 20.8 48 8.2 WSW 11 17 6 9 1005.9 1005.6 0.0
24/03:30pm 32.8 35.2 21.6 51 7.6 W 11 15 6 8 1006.0 1005.7 0.0
24/03:00pm 33.1 35.8 21.3 50 8.0 W 9 17 5 9 1006.3 1006.0 0.0
24/02:30pm 33.8 34.6 20.6 46 8.9 WSW 17 28 9 15 1006.7 1006.4 0.0
24/02:00pm 34.0 35.4 21.0 46 8.8 WSW 15 20 8 11 1007.2 1006.9 0.0
24/01:30pm 34.6 37.0 21.5 46 8.9 WNW 11 17 6 9 1007.7 1007.4 0.0
24/01:00pm 33.7 37.0 21.8 49 8.1 N 7 13 4 7 1008.4 1008.1 0.0
24/12:30pm 33.0 36.1 22.2 53 7.4 NNW 9 17 5 9 1009.2 1008.9 0.0
24/12:00pm 32.0 35.5 22.8 58 6.3 NNE 9 13 5 7 1010.1 1009.8 0.0
24/11:30am 31.9 36.0 23.2 60 6.0 N 7 13 4 7 1010.6 1010.3 0.0
24/11:00am 30.7 34.4 22.2 60 5.8 NNE 6 7 3 4 1011.1 1010.8 0.0
24/10:30am 30.4 34.9 23.6 67 4.7 NNW 6 11 3 6 1011.4 1011.1 0.0
24/10:00am 29.7 34.9 24.2 72 3.8 W 4 9 2 5 1011.6 1011.3 0.0
24/09:30am 28.6 33.7 24.0 76 3.2 NW 4 7 2 4 1011.9 1011.6 0.0
24/09:00am 27.6 32.5 24.4 83 2.2 WSW 6 9 3 5 1012.0 1011.7 9.2
24/08:30am 26.2 32.2 24.3 89 1.3 CALM 0 0 0 0 1011.9 1011.6 9.2
24/08:00am 25.5 31.5 24.3 93 0.8 CALM 0 0 0 0 1011.5 1011.2 9.2
24/07:30am 24.6 30.2 23.6 94 0.7 CALM 0 0 0 0 1011.1 1010.8 9.2
24/07:00am 24.3 29.6 23.1 93 0.8 CALM 0 2 0 1 1010.6 1010.3 9.2
24/06:30am 24.3 30.1 23.9 98 0.3 CALM 0 6 0 3 1010.2 1009.9 9.2
24/06:00am 24.1 29.7 23.5 96 0.4 CALM 0 0 0 0 1010.0 1009.7 9.0
24/05:30am 24.0 28.9 23.1 95 0.6 N 2 6 1 3 1009.6 1009.3 9.0
24/05:00am 23.7 27.5 22.4 92 0.9 WSW 6 13 3 7 1009.4 1009.1 8.6
24/04:30am 24.1 28.8 22.6 91 1.0 NE 2 9 1 5 1009.2 1008.9 5.2
24/04:00am 25.3 31.2 24.1 93 0.8 CALM 0 0 0 0 1009.0 1008.7 1.0
24/03:30am 25.9 31.3 23.3 85 1.8 CALM 0 0 0 0 1008.8 1008.5 0.0
24/03:00am 25.8 31.0 23.5 87 1.6 W 2 7 1 4 1009.0 1008.7 0.0
24/02:30am 25.8 30.3 23.6 88 1.5 SE 6 7 3 4 1009.0 1008.7 0.0
24/02:00am 26.2 31.5 23.0 82 2.2 CALM 0 0 0 0 1009.2 1008.9 0.0
24/01:30am 26.1 30.6 23.0 83 2.1 WNW 4 9 2 5 1009.5 1009.2 0.0
24/01:00am 26.2 31.6 23.3 84 2.0 CALM 0 0 0 0 1009.5 1009.2 0.0
24/12:30am 26.2 31.1 23.1 83 2.1 N 2 7 1 4 1009.9 1009.6 0.0
24/12:00am 26.1 31.5 23.2 84 2.0 CALM 0 0 0 0 1009.9 1009.6 0.0
 
Date/Time
CST
Temp
°C
App
Temp
°C
Dew
Point
°C
Rel
Hum
%
Delta-T
°C
Wind Press
QNH
hPa
Press
MSL
hPa
Rain since
9am
mm
Dir  Spd
km/h
Gust
km/h
Spd
kts
Gust
kts
23/11:30pm 26.2 31.5 23.1 83 2.1 CALM 0 0 0 0 1010.0 1009.7 0.0
23/11:00pm 26.4 31.5 22.7 80 2.5 CALM 0 0 0 0 1010.1 1009.8 0.0
23/10:30pm 26.7 31.2 22.9 79 2.6 SW 4 9 2 5 1010.0 1009.7 0.0
23/10:00pm 27.0 30.8 22.7 77 2.9 W 7 13 4 7 1009.7 1009.4 0.0
23/09:30pm 27.0 30.5 22.9 78 2.8 SW 9 13 5 7 1009.5 1009.2 0.0
23/09:00pm 27.3 30.3 22.7 76 3.1 W 11 15 6 8 1009.3 1009.0 0.0
23/08:30pm 27.5 30.7 22.3 73 3.5 W 9 11 5 6 1009.3 1009.0 0.0
23/08:00pm 27.8 30.8 21.9 70 4.0 WNW 9 15 5 8 1009.0 1008.7 0.0
23/07:30pm 28.2 30.5 22.1 69 4.1 WNW 13 24 7 13 1008.5 1008.2 0.0
23/07:00pm 28.8 30.6 21.8 66 4.7 W 15 22 8 12 1008.2 1007.9 0.0
23/06:30pm 29.3 30.3 21.7 63 5.1 WNW 19 30 10 16 1007.8 1007.5 0.0
23/06:00pm 32.2 34.1 18.5 44 8.9 NW 6 30 3 16 1007.1 1006.8 0.0
23/05:30pm 34.9 36.3 16.4 33 11.8 NE 4 9 2 5 1006.3 1006.0 0.0
23/05:00pm 35.0 35.4 14.8 29 12.6 NNE 6 13 3 7 1006.2 1005.9 0.0
23/04:30pm 35.6 36.3 15.7 30 12.6 NNE 6 13 3 7 1006.0 1005.7 0.0
23/04:00pm 35.2 35.9 16.0 31 12.1 NE 7 13 4 7 1006.3 1006.0 0.0
23/03:30pm 35.2 36.1 16.2 32 12.1 NNW 6 11 3 6 1006.5 1006.2 0.0
23/03:00pm 34.6 35.2 16.8 34 11.4 ENE 9 19 5 10 1007.0 1006.7 0.0
23/02:30pm 34.8 35.5 16.2 33 11.8 ENE 7 13 4 7 1007.6 1007.3 0.0
23/02:00pm 34.4 35.9 18.1 38 10.6 NNE 7 11 4 6 1008.0 1007.7 0.0
23/01:30pm 31.3 33.3 19.1 48 8.0 NW 7 13 4 7 1008.7 1008.4 0.0
23/01:00pm 32.1 34.7 20.0 48 8.0 NW 6 11 3 6 1009.4 1009.1 0.0
23/12:30pm 32.7 36.3 19.7 46 8.6 CALM 0 2 0 1 1010.0 1009.7 0.0
23/12:00pm 31.1 33.6 21.1 55 6.7 NW 9 13 5 7 1010.7 1010.4 0.0
23/11:30am 31.8 35.0 21.3 53 7.1 NNW 6 11 3 6 1011.1 1010.8 0.0
23/11:00am 31.9 34.8 21.0 52 7.3 NE 7 17 4 9 1011.6 1011.3 0.0
23/10:30am 31.6 35.3 22.5 58 6.2 NNW 7 11 4 6 1012.3 1012.0 0.0
23/10:00am 31.3 34.9 22.4 59 6.1 NNE 7 13 4 7 1012.5 1012.2 0.0
23/09:30am 30.3 34.5 23.2 65 4.9 NNE 6 9 3 5 1012.7 1012.4 0.0
23/09:00am 29.5 33.7 23.1 68 4.4 N 6 9 3 5 1012.7 1012.4 0.2
23/08:30am 28.5 33.4 23.6 75 3.4 NNE 4 9 2 5 1012.4 1012.1 0.2
23/08:00am 26.9 31.7 23.5 81 2.3 N 4 9 2 5 1012.0 1011.7 0.2
23/07:30am 24.9 28.9 22.7 87 1.5 NNE 6 7 3 4 1011.6 1011.3 0.2
23/07:00am 24.1 28.1 22.8 92 0.9 NE 6 7 3 4 1011.5 1011.2 0.2
23/06:30am 24.1 29.0 22.3 90 1.2 CALM 0 0 0 0 1011.0 1010.7 0.2
23/06:00am 24.0 29.1 22.7 92 0.9 CALM 0 0 0 0 1010.7 1010.4 0.2
23/05:30am 24.1 28.9 22.8 92 0.9 NE 2 6 1 3 1010.3 1010.0 0.2
23/05:00am 24.6 29.7 22.7 89 1.3 CALM 0 0 0 0 1010.0 1009.7 0.2
23/04:30am 24.9 29.6 22.7 87 1.5 NNW 2 9 1 5 1009.8 1009.5 0.2
23/04:00am 25.3 30.1 22.9 86 1.6 NW 2 7 1 4 1009.8 1009.5 0.2
23/03:30am 25.5 30.8 23.0 86 1.7 CALM 0 4 0 2 1010.0 1009.7 0.2
23/03:00am 26.0 30.4 22.8 82 2.2 WNW 4 7 2 4 1010.1 1009.8 0.2
23/02:30am 26.0 29.9 22.6 81 2.3 NW 6 9 3 5 1010.2 1009.9 0.2
23/02:00am 25.9 29.6 22.3 80 2.4 NW 6 9 3 5 1010.4 1010.1 0.2
23/01:30am 26.2 31.5 23.0 82 2.2 CALM 0 0 0 0 1010.8 1010.5 0.2
23/01:00am 26.0 31.2 22.8 82 2.2 CALM 0 0 0 0 1011.2 1010.9 0.2
23/12:30am 25.6 29.1 22.9 85 1.8 S 9 11 5 6 1011.1 1010.8 0.2
23/12:00am 26.5 30.5 22.0 76 3.0 WSW 4 7 2 4 1010.8 1010.5 0.2
 
Date/Time
CST
Temp
°C
App
Temp
°C
Dew
Point
°C
Rel
Hum
%
Delta-T
°C
Wind Press
QNH
hPa
Press
MSL
hPa
Rain since
9am
mm
Dir  Spd
km/h
Gust
km/h
Spd
kts
Gust
kts
22/11:30pm 26.4 31.5 22.7 80 2.5 CALM 0 0 0 0 1010.9 1010.6 0.2
22/11:00pm 27.0 30.9 21.9 73 3.4 NNW 4 9 2 5 1011.0 1010.7 0.2
22/10:30pm 27.2 31.8 21.8 72 3.6 CALM 0 6 0 3 1011.1 1010.8 0.2
22/10:00pm 27.7 31.7 22.1 71 3.8 NW 4 48 2 26 1011.1 1010.8 0.2

Other Formats:

Comma delimited format used in spreadsheet applications
http://www.bom.gov.au/fwo/IDD60801/IDD60801.94128.axf

JavaScript Object Notation format (JSON) in row-major order
http://www.bom.gov.au/fwo/IDD60801/IDD60801.94128.json